Terminal Aerodrome Forecast
Issued by NWS Louisville, KY

Home | Current Version | Previous Version | Text Only | Print | Product List | Glossary On
Versions: 1 2 3 4 5 6 7 8 9 10 11 12 13 14 15
488
FTUS43 KLMK 231139
TAFLEX
TAF
KLEX 231139Z 2312/2412 29009KT P6SM -SHRA VCTS BKN060CB
     FM231300 23010KT P6SM VCSH BKN050
     FM231800 24010KT P6SM SCT050
      TEMPO 2318/2322 3SM -TSRA BKN040CB
     FM240000 24006KT P6SM BKN045
     FM240500 22004KT P6SM BKN200
     FM240900 VRB03KT 3SM BR SCT250=

USA.gov is the U.S. government's official web portal to all federal, state and local government web resources and services.